首页
METAR-TAF:

METAR-TAF

机场 :

熊本機場

熊本, 日本

纬度: 32-50N, 经度: 130-51E, 海拔: 193米

当前天气观测

该预报发布于1小时和6分钟前的00:00 UTC
风速2节,风向多变
温度 29°C
湿度 74%
气压 1013 hPa
能見度: 8000
少量云层高于3000英尺

METAR: RJFT 180000Z VRB02KT 8000 FEW030 29/24 Q1013

时间: 10:06 (01:06 UTC)

预报

该预报发布于1小时和54分钟前的23:12 UTC
预报有效从18日的 00点(UTC)到 19日的 06点(UTC)
风速5节,风向西南
能見度: 8000
少量云层高于3000英尺
成为
从 18日的 12点(UTC)到 18日的 15点(UTC)
风速4节,风向东转东北
成为
从 18日的 21点(UTC)到 19日的 00点(UTC)
风速5节,风向南转西南

TAF: RJFT 172312Z 1800/1906 23005KT 8000 FEW030 BECMG 1812/1815 06004KT BECMG 1821/1900 20005KT

超过4000个机场的气象观测和天气预报(METAR&TAF报告)。

可查询的气象台以黄色和红色小点在地图上表示。

将鼠标移到小点上方,可查看气象台名称。

然后点击查看天气观测和预报。

如需切换地图:点击带黑十字的绿色按钮放大地图;点击带横线的绿色按钮缩小地图;或者点击绿色箭头查看邻近地区的地图。


METAR-TAF: